Terminal Aerodrome Forecast
Issued by NWS

Home | Current Version | Previous Version | Text Only | Print | Product List | Glossary Off
Versions: 1 2 3 4 5 6 7 8 9 10 11 12 13

000
FTUS43 KICT 032332
TAFCNU
TAF
KCNU 032332Z 0400/0424 16007KT P6SM SCT100 BKN250
     FM041500 22011KT P6SM SCT040 BKN120
     FM041600 22012KT P6SM VCTS SCT025 BKN050CB=

USA.gov is the U.S. government's official web portal to all federal, state and local government web resources and services.